createdAt,value
2018-02-06T00:00:55.402Z,1.49
2018-02-06T00:03:23.131Z,1.53
2018-02-06T00:05:50.805Z,1.57
2018-02-06T00:08:18.501Z,1.57
2018-02-06T00:10:46.178Z,1.53
2018-02-06T00:13:13.869Z,1.56
2018-02-06T00:15:41.621Z,1.57
2018-02-06T00:18:09.319Z,1.60
2018-02-06T00:20:36.985Z,1.57
2018-02-06T00:23:04.683Z,1.55
2018-02-06T00:25:32.345Z,1.54
2018-02-06T00:28:00.042Z,1.52
2018-02-06T00:30:27.709Z,1.54
2018-02-06T00:32:55.486Z,1.52
2018-02-06T00:35:23.181Z,1.52
2018-02-06T00:37:50.856Z,1.50
2018-02-06T00:40:18.574Z,1.47
2018-02-06T00:42:46.257Z,1.48
2018-02-06T00:45:13.960Z,1.48
2018-02-06T00:47:41.670Z,1.43
2018-02-06T00:50:09.351Z,1.37
2018-02-06T00:52:37.089Z,1.34
2018-02-06T00:55:04.775Z,1.39
2018-02-06T00:57:32.468Z,1.32
2018-02-06T01:00:00.159Z,1.24
2018-02-06T01:02:27.907Z,1.28
2018-02-06T01:04:55.622Z,1.24
2018-02-06T01:07:23.377Z,1.18
2018-02-06T01:09:51.079Z,1.15
2018-02-06T01:12:18.742Z,1.16
2018-02-06T01:14:46.455Z,1.19
2018-02-06T01:17:14.139Z,1.19
2018-02-06T01:19:41.842Z,1.18
2018-02-06T01:22:09.509Z,1.17
2018-02-06T01:24:37.281Z,1.16
2018-02-06T01:27:04.945Z,1.18
2018-02-06T01:29:32.659Z,1.18
2018-02-06T01:32:00.358Z,1.18
2018-02-06T01:34:28.122Z,1.16
2018-02-06T01:36:55.802Z,1.13
2018-02-06T01:39:23.514Z,1.12
2018-02-06T01:41:51.196Z,1.07
2018-02-06T01:44:18.918Z,1.06
2018-02-06T01:46:46.652Z,0.93
2018-02-06T01:49:14.361Z,0.89
2018-02-06T01:51:42.065Z,0.87
2018-02-06T01:54:09.817Z,0.86
2018-02-06T01:56:37.491Z,0.88
2018-02-06T01:59:05.207Z,0.89
2018-02-06T02:01:32.901Z,0.92
2018-02-06T02:04:00.626Z,0.97
2018-02-06T02:06:28.293Z,1.09
2018-02-06T02:08:56.106Z,1.11
2018-02-06T02:11:23.820Z,1.12
2018-02-06T02:13:51.529Z,1.08
2018-02-06T02:16:19.230Z,1.02
2018-02-06T02:18:46.920Z,1.07
2018-02-06T02:21:14.591Z,1.06
2018-02-06T02:23:42.290Z,0.99
2018-02-06T02:26:09.957Z,1.01
2018-02-06T02:28:37.750Z,1.03
2018-02-06T02:31:05.510Z,0.98
2018-02-06T02:33:33.218Z,0.94
2018-02-06T02:36:00.899Z,0.90
2018-02-06T02:38:28.618Z,0.89
2018-02-06T02:40:56.312Z,0.86
2018-02-06T04:39:05.523Z,0.67
2018-02-06T04:41:33.221Z,0.75
2018-02-06T04:44:00.901Z,0.85
2018-02-06T04:46:28.634Z,0.84
2018-02-06T04:48:56.305Z,0.86
2018-02-06T04:51:24.054Z,0.89
2018-02-06T04:53:51.761Z,0.90
2018-02-06T04:56:19.476Z,0.92
2018-02-06T04:58:47.206Z,0.93
2018-02-06T05:01:14.909Z,0.98
2018-02-06T05:03:42.627Z,1.01
2018-02-06T05:06:10.331Z,1.00
2018-02-06T05:08:37.994Z,1.00
2018-02-06T05:11:05.694Z,1.03
2018-02-06T05:13:33.413Z,1.04
2018-02-06T05:16:01.085Z,1.05
2018-02-06T05:18:28.786Z,1.11
2018-02-06T05:20:56.486Z,1.10
2018-02-06T05:23:24.182Z,1.11
2018-02-06T05:25:51.870Z,1.10
2018-02-06T05:28:19.541Z,1.08
2018-02-06T05:30:47.262Z,1.09
2018-02-06T05:33:14.937Z,1.10
2018-02-06T05:35:42.637Z,1.13
2018-02-06T05:38:10.305Z,1.12
2018-02-06T05:40:38.098Z,1.17
2018-02-06T05:43:05.766Z,1.12
2018-02-06T05:45:33.509Z,1.17
2018-02-06T05:48:01.183Z,1.17
2018-02-06T05:50:28.889Z,1.18
2018-02-06T05:52:56.585Z,1.20
2018-02-06T05:55:24.289Z,1.24
2018-02-06T05:57:52.016Z,1.24
2018-02-06T06:00:19.835Z,1.23
2018-02-06T06:02:47.607Z,1.19
2018-02-06T06:05:15.302Z,1.19
2018-02-06T06:07:42.969Z,1.23
2018-02-06T06:10:10.662Z,1.24
2018-02-06T06:12:38.333Z,1.18
2018-02-06T06:15:06.034Z,1.17
2018-02-06T06:17:33.715Z,1.15
2018-02-06T06:20:01.447Z,1.14
2018-02-06T06:22:29.140Z,1.13
2018-02-06T06:24:56.831Z,1.19
2018-02-06T06:27:24.504Z,1.21
2018-02-06T06:29:52.209Z,1.24
2018-02-06T06:32:19.882Z,1.27
2018-02-06T06:34:47.583Z,1.27
2018-02-06T06:37:15.262Z,1.25
2018-02-06T06:39:42.962Z,1.31
2018-02-06T06:42:10.632Z,1.31
2018-02-06T06:44:38.318Z,1.30
2018-02-06T06:47:05.981Z,1.28
2018-02-06T06:49:33.694Z,1.25
2018-02-06T06:52:01.366Z,1.25
2018-02-06T06:54:29.075Z,1.26
2018-02-06T06:56:56.745Z,1.28
2018-02-06T06:59:24.437Z,1.31
2018-02-06T07:01:52.177Z,1.30
2018-02-06T07:04:19.915Z,1.28
2018-02-06T07:06:47.596Z,1.23
2018-02-06T07:09:15.277Z,1.24
2018-02-06T07:11:43.126Z,1.27
2018-02-06T07:14:10.826Z,1.27
2018-02-06T07:16:38.570Z,1.30
2018-02-06T07:19:06.270Z,1.33
2018-02-06T07:21:33.941Z,1.29
2018-02-06T07:24:01.657Z,1.29
2018-02-06T07:26:29.338Z,1.28
2018-02-06T07:28:57.042Z,1.27
2018-02-06T07:31:24.718Z,1.29
2018-02-06T07:33:52.433Z,1.33
2018-02-06T07:36:20.108Z,1.34
2018-02-06T07:38:47.802Z,1.39
2018-02-06T07:41:15.515Z,1.42
2018-02-06T07:43:43.222Z,1.45
2018-02-06T07:46:10.894Z,1.47
2018-02-06T07:48:38.640Z,1.53
2018-02-06T07:51:06.311Z,1.56
2018-02-06T07:53:33.981Z,1.55
2018-02-06T07:56:01.678Z,1.59
2018-02-06T07:58:29.345Z,1.65
2018-02-06T08:00:57.058Z,1.69
2018-02-06T08:03:24.730Z,1.69
2018-02-06T08:05:52.437Z,1.64
2018-02-06T08:08:20.109Z,1.63
2018-02-06T08:10:47.816Z,1.65
2018-02-06T08:13:15.494Z,1.66
2018-02-06T08:15:43.226Z,1.70
2018-02-06T08:18:10.925Z,1.69
2018-02-06T08:20:38.613Z,1.69
2018-02-06T08:23:06.278Z,1.56
2018-02-06T08:25:33.981Z,1.50
2018-02-06T08:28:01.667Z,1.43
2018-02-06T08:30:29.403Z,1.33
2018-02-06T08:32:57.084Z,1.21
2018-02-06T08:35:24.964Z,1.04
2018-02-06T08:37:52.649Z,0.90
2018-02-06T08:40:20.462Z,0.88
2018-02-06T08:42:48.135Z,0.90
2018-02-06T08:45:15.834Z,0.91
2018-02-06T08:47:43.510Z,0.90
2018-02-06T08:50:11.238Z,0.88
2018-02-06T08:52:38.938Z,0.86
2018-02-06T08:55:06.658Z,0.87
2018-02-06T08:57:34.337Z,0.87
2018-02-06T09:00:02.018Z,0.91
2018-02-06T09:02:29.698Z,0.98
2018-02-06T09:04:57.390Z,0.97
2018-02-06T09:07:25.116Z,1.02
2018-02-06T09:09:52.818Z,1.03
2018-02-06T09:12:20.481Z,1.14
2018-02-06T09:14:48.242Z,1.16
2018-02-06T09:17:15.946Z,1.21
2018-02-06T09:19:43.644Z,1.24
2018-02-06T09:22:11.318Z,1.31
2018-02-06T09:24:39.138Z,1.43
2018-02-06T09:27:06.815Z,1.50
2018-02-06T09:29:34.635Z,1.67
2018-02-06T09:32:02.319Z,1.79
2018-02-06T09:34:30.029Z,1.84
2018-02-06T09:36:57.694Z,1.85
2018-02-06T09:39:25.406Z,1.85
2018-02-06T09:41:53.099Z,1.82
2018-02-06T09:44:20.790Z,1.84
2018-02-06T09:46:48.491Z,1.89
2018-02-06T09:49:16.191Z,1.91
2018-02-06T09:51:43.873Z,1.98
2018-02-06T09:54:11.582Z,1.94
2018-02-06T09:56:39.246Z,1.93
2018-02-06T09:59:06.954Z,1.94
2018-02-06T10:01:34.642Z,1.92
2018-02-06T10:04:02.368Z,1.96
2018-02-06T10:06:30.047Z,1.91
2018-02-06T10:08:57.764Z,1.86
2018-02-06T10:11:25.430Z,1.89
2018-02-06T10:13:53.154Z,1.86
2018-02-06T10:16:20.851Z,1.87
2018-02-06T10:18:48.581Z,1.87
2018-02-06T10:21:16.307Z,1.91
2018-02-06T10:23:43.975Z,1.86
2018-02-06T10:26:11.653Z,1.88
2018-02-06T10:28:39.369Z,1.92
2018-02-06T10:31:07.129Z,1.92
2018-02-06T10:33:34.855Z,1.96
2018-02-06T10:36:02.621Z,1.97
2018-02-06T10:38:30.330Z,2.07
2018-02-06T10:40:58.035Z,2.10
2018-02-06T10:43:25.741Z,2.05
2018-02-06T10:45:53.531Z,1.96
2018-02-06T10:48:21.244Z,1.92
2018-02-06T10:50:48.917Z,1.91
2018-02-06T10:53:16.783Z,1.93
2018-02-06T10:55:44.446Z,1.91
2018-02-06T10:58:12.141Z,1.93
2018-02-06T11:00:39.845Z,1.94
2018-02-06T11:03:07.551Z,1.93
2018-02-06T11:05:35.295Z,1.97
2018-02-06T11:08:03.026Z,1.92
2018-02-06T11:10:30.719Z,1.98
2018-02-06T11:12:58.536Z,1.98
2018-02-06T11:15:26.259Z,2.00
2018-02-06T11:17:54.008Z,2.02
2018-02-06T11:20:21.698Z,1.98
2018-02-06T11:22:49.421Z,2.02
2018-02-06T11:25:17.100Z,2.04
2018-02-06T11:27:44.813Z,2.04
2018-02-06T11:30:12.485Z,2.07
2018-02-06T11:32:40.227Z,2.06
2018-02-06T11:35:07.942Z,2.03
2018-02-06T11:37:35.629Z,2.06
2018-02-06T11:40:03.315Z,2.08
2018-02-06T11:42:31.017Z,2.12
2018-02-06T11:44:58.750Z,2.17
2018-02-06T11:47:26.432Z,2.21
2018-02-06T11:49:54.132Z,2.22
2018-02-06T11:52:21.826Z,2.29
2018-02-06T11:54:49.531Z,2.33
2018-02-06T11:57:17.302Z,2.28
2018-02-06T11:59:45.010Z,2.29
2018-02-06T12:02:12.774Z,2.31
2018-02-06T12:04:40.477Z,2.32
2018-02-06T12:07:08.154Z,2.32
2018-02-06T12:09:35.861Z,2.33
2018-02-06T12:12:03.577Z,2.38
2018-02-06T12:14:31.287Z,2.42
2018-02-06T12:16:58.978Z,2.44
2018-02-06T12:19:26.687Z,2.48
2018-02-06T12:21:54.349Z,2.49
2018-02-06T12:24:22.050Z,2.56
2018-02-06T12:26:49.769Z,2.60
2018-02-06T12:29:17.485Z,2.57
2018-02-06T12:31:45.154Z,2.57
2018-02-06T12:34:12.846Z,2.59
2018-02-06T12:36:40.531Z,2.67
2018-02-06T12:39:08.241Z,2.69
2018-02-06T12:41:35.913Z,2.66
2018-02-06T12:44:03.606Z,2.70
2018-02-06T12:46:31.285Z,2.71
2018-02-06T12:48:59.003Z,2.70
2018-02-06T12:51:26.687Z,2.71
2018-02-06T12:53:54.385Z,2.72
2018-02-06T12:56:22.054Z,2.74
2018-02-06T12:58:49.812Z,2.84
2018-02-06T13:01:17.481Z,2.85
2018-02-06T13:03:45.254Z,2.84
2018-02-06T13:06:12.930Z,2.82
2018-02-06T13:08:42.060Z,2.82
2018-02-06T13:11:09.753Z,2.82
2018-02-06T13:13:37.480Z,2.82
2018-02-06T13:16:05.149Z,2.80
2018-02-06T13:18:32.866Z,2.86
2018-02-06T13:21:00.550Z,2.86
2018-02-06T13:23:28.249Z,2.87
2018-02-06T13:25:56.016Z,2.90
2018-02-06T13:28:23.731Z,2.89
2018-02-06T13:30:51.415Z,2.87
2018-02-06T13:33:19.126Z,2.84
2018-02-06T13:35:46.854Z,2.85
2018-02-06T13:38:14.590Z,2.88
2018-02-06T13:40:42.260Z,2.93
2018-02-06T13:43:09.981Z,2.93
2018-02-06T13:45:37.669Z,2.89
2018-02-06T13:48:05.381Z,2.83
2018-02-06T13:50:33.157Z,2.75
2018-02-06T13:53:00.871Z,2.62
2018-02-06T13:55:28.482Z,2.65
2018-02-06T13:57:56.204Z,2.60
2018-02-06T14:00:23.934Z,2.69
2018-02-06T14:02:51.657Z,2.67
2018-02-06T14:05:19.418Z,2.56
2018-02-06T14:07:47.145Z,2.41
2018-02-06T14:10:14.878Z,2.28
2018-02-06T14:12:42.597Z,2.36
2018-02-06T14:15:10.365Z,2.37
2018-02-06T14:17:38.073Z,2.29
2018-02-06T14:20:05.757Z,2.30
2018-02-06T14:22:33.463Z,2.35
2018-02-06T14:25:01.215Z,2.41
2018-02-06T14:27:29.062Z,2.41
2018-02-06T14:29:56.731Z,2.43
2018-02-06T14:32:24.489Z,2.39
2018-02-06T14:34:52.197Z,2.25
2018-02-06T14:37:20.262Z,2.22
2018-02-06T14:39:47.943Z,2.20
2018-02-06T14:42:15.649Z,2.18
2018-02-06T14:44:43.345Z,2.19
2018-02-06T14:47:11.081Z,2.22
2018-02-06T14:49:38.792Z,2.22
2018-02-06T14:52:06.635Z,2.23
2018-02-06T14:54:34.343Z,2.22
2018-02-06T14:57:02.017Z,2.23
2018-02-06T14:59:29.699Z,2.16
2018-02-06T15:01:57.432Z,2.13
2018-02-06T15:04:25.090Z,2.08
2018-02-06T15:06:52.785Z,2.11
2018-02-06T15:09:20.467Z,2.17
2018-02-06T15:11:48.166Z,2.14
2018-02-06T15:14:15.855Z,2.11
2018-02-06T15:16:43.571Z,2.08
2018-02-06T15:19:11.261Z,2.15
2018-02-06T15:21:38.978Z,2.09
2018-02-06T15:24:06.645Z,2.06
2018-02-06T15:26:34.355Z,2.06
2018-02-06T15:29:02.094Z,2.05
2018-02-06T15:31:29.820Z,1.94
2018-02-06T15:33:57.491Z,1.92
2018-02-06T15:36:25.338Z,1.93
2018-02-06T15:38:53.027Z,1.93
2018-02-06T15:41:20.794Z,2.02
2018-02-06T15:43:48.466Z,2.07
2018-02-06T15:46:16.161Z,2.03
2018-02-06T15:48:44.679Z,2.01
2018-02-06T15:51:12.378Z,2.13
2018-02-06T15:53:40.082Z,2.24
2018-02-06T15:56:07.845Z,2.31
2018-02-06T15:58:35.522Z,2.31
2018-02-06T16:01:18.086Z,2.39
2018-02-06T16:03:45.792Z,2.48
2018-02-06T16:06:13.484Z,2.49
2018-02-06T16:08:41.219Z,2.51
2018-02-06T16:11:08.906Z,2.53
2018-02-06T16:13:36.562Z,2.46
2018-02-06T16:16:04.299Z,2.39
2018-02-06T16:18:31.969Z,2.38
2018-02-06T16:20:59.761Z,2.38
2018-02-06T16:23:27.446Z,2.40
2018-02-06T16:25:55.190Z,2.46
2018-02-06T16:28:22.874Z,2.48
2018-02-06T16:30:50.654Z,2.50
2018-02-06T16:33:18.324Z,2.52
2018-02-06T16:35:46.054Z,2.54
2018-02-06T16:38:13.858Z,2.59
2018-02-06T16:40:41.558Z,2.61
2018-02-06T16:43:10.053Z,2.57
2018-02-06T16:45:37.785Z,2.52
2018-02-06T16:48:05.481Z,2.43
2018-02-06T16:50:33.241Z,2.40
2018-02-06T16:53:00.924Z,2.29
2018-02-06T16:55:28.646Z,2.27
2018-02-06T16:57:56.321Z,2.29
2018-02-06T17:00:24.014Z,2.31
2018-02-06T17:02:51.726Z,2.37
2018-02-06T17:05:19.461Z,2.34
2018-02-06T17:07:47.166Z,2.35
2018-02-06T17:10:14.886Z,2.39
2018-02-06T17:12:42.573Z,2.45
2018-02-06T17:15:10.303Z,2.47
2018-02-06T17:17:37.996Z,2.50
2018-02-06T17:20:05.724Z,2.50
2018-02-06T17:22:33.410Z,2.45
2018-02-06T17:25:01.169Z,2.46
2018-02-06T17:27:28.859Z,2.40
2018-02-06T17:29:56.638Z,2.29
2018-02-06T17:32:24.394Z,2.26
2018-02-06T17:34:52.167Z,2.23
2018-02-06T17:37:19.854Z,2.23
2018-02-06T17:39:47.606Z,2.25
2018-02-06T17:42:15.283Z,2.29
2018-02-06T17:44:42.999Z,2.31
2018-02-06T17:47:10.748Z,2.34
2018-02-06T17:49:38.558Z,2.37
2018-02-06T17:52:06.250Z,2.32
2018-02-06T17:54:33.998Z,2.26
2018-02-06T17:57:01.719Z,2.25
2018-02-06T17:59:29.443Z,2.24
2018-02-06T18:01:57.242Z,2.24
2018-02-06T18:04:24.942Z,2.28
2018-02-06T18:06:52.654Z,2.29
2018-02-06T18:09:20.370Z,2.30
2018-02-06T18:11:48.085Z,2.30
2018-02-06T18:14:15.813Z,2.34
2018-02-06T18:16:43.578Z,2.28
2018-02-06T18:19:11.283Z,2.29
2018-02-06T18:21:38.958Z,2.33
2018-02-06T18:24:06.666Z,2.36
2018-02-06T18:26:34.352Z,2.38
2018-02-06T18:29:02.085Z,2.38
2018-02-06T18:31:29.809Z,2.28
2018-02-06T18:33:57.528Z,2.25
2018-02-06T18:36:25.185Z,2.29
2018-02-06T18:38:52.898Z,2.35
2018-02-06T18:41:20.633Z,2.37
2018-02-06T18:43:48.353Z,2.32
2018-02-06T18:46:15.985Z,2.31
2018-02-06T18:48:43.734Z,2.24
2018-02-06T18:51:11.410Z,2.25
2018-02-06T18:53:39.154Z,2.28
2018-02-06T18:56:06.857Z,2.27
2018-02-06T18:58:34.621Z,2.28
2018-02-06T19:01:02.301Z,2.29
2018-02-06T19:03:29.998Z,2.34
2018-02-06T19:05:57.730Z,2.33
2018-02-06T19:08:25.442Z,2.36
2018-02-06T19:10:53.149Z,2.40
2018-02-06T19:13:20.975Z,2.40
2018-02-06T19:15:48.685Z,2.40
2018-02-06T19:18:16.501Z,2.44
2018-02-06T19:20:44.266Z,2.43
2018-02-06T19:23:11.958Z,2.46
2018-02-06T19:25:39.682Z,2.48
2018-02-06T19:28:07.417Z,2.51
2018-02-06T19:30:35.126Z,2.50
2018-02-06T19:33:02.854Z,2.45
2018-02-06T19:35:30.604Z,2.45
2018-02-06T19:37:58.318Z,2.47
2018-02-06T19:40:26.084Z,2.45
2018-02-06T19:42:53.779Z,2.41
2018-02-06T19:45:21.688Z,2.40
2018-02-06T19:47:49.382Z,2.42
2018-02-06T19:50:17.094Z,2.45
2018-02-06T19:52:44.825Z,2.45
2018-02-06T19:55:12.543Z,2.43
2018-02-06T19:57:40.221Z,2.44
2018-02-06T20:00:07.963Z,2.46
2018-02-06T20:02:35.663Z,2.44
2018-02-06T20:05:03.395Z,2.41
2018-02-06T20:07:31.090Z,2.46
2018-02-06T20:09:58.838Z,2.46
2018-02-06T20:12:26.438Z,2.45
2018-02-06T20:14:54.206Z,2.43
2018-02-06T20:17:21.894Z,2.47
2018-02-06T20:19:49.610Z,2.46
2018-02-06T20:22:17.290Z,2.44
2018-02-06T20:24:45.014Z,2.39
2018-02-06T20:27:12.716Z,2.40
2018-02-06T20:29:40.438Z,2.40
2018-02-06T20:32:08.309Z,2.38
2018-02-06T20:34:36.037Z,2.34
2018-02-06T20:37:03.709Z,2.31
2018-02-06T20:39:31.421Z,2.32
2018-02-06T20:41:59.131Z,2.29
2018-02-06T20:44:26.849Z,2.29
2018-02-06T20:46:54.533Z,2.32
2018-02-06T20:49:22.243Z,2.35
2018-02-06T20:51:49.910Z,2.36
2018-02-06T20:54:17.630Z,2.39
2018-02-06T20:56:45.383Z,2.38
2018-02-06T20:59:13.102Z,2.35
2018-02-06T21:01:40.813Z,2.34
2018-02-06T21:04:08.550Z,2.25
2018-02-06T21:06:36.244Z,2.22
2018-02-06T21:09:03.974Z,2.18
2018-02-06T21:11:31.760Z,2.17
2018-02-06T21:13:59.490Z,2.14
2018-02-06T21:16:27.188Z,2.10
2018-02-06T21:18:54.968Z,2.03
2018-02-06T21:21:22.650Z,2.05
2018-02-06T21:23:50.370Z,2.06
2018-02-06T21:26:18.178Z,2.09
2018-02-06T21:28:45.901Z,2.14
2018-02-06T21:31:13.648Z,2.19
2018-02-06T21:33:41.446Z,2.17
2018-02-06T21:36:09.117Z,2.17
2018-02-06T21:38:36.940Z,2.20
2018-02-06T21:41:04.620Z,2.22
2018-02-06T21:43:32.238Z,2.26
2018-02-06T21:45:59.834Z,2.30
2018-02-06T21:48:27.539Z,2.29
2018-02-06T21:50:55.286Z,2.28
2018-02-06T21:53:22.983Z,2.25
2018-02-06T21:55:50.671Z,2.16
2018-02-06T21:58:18.386Z,2.09
2018-02-06T22:00:46.086Z,2.06
2018-02-06T22:03:13.796Z,2.01
2018-02-06T22:05:41.479Z,2.01
2018-02-06T22:08:09.241Z,2.03
2018-02-06T22:10:36.916Z,2.06
2018-02-06T22:13:04.609Z,2.08
2018-02-06T22:15:32.284Z,2.01
2018-02-06T22:17:59.988Z,2.02
2018-02-06T22:20:27.651Z,2.06
2018-02-06T22:22:55.446Z,2.07
2018-02-06T22:25:23.122Z,2.09
2018-02-06T22:27:50.889Z,2.44
2018-02-06T22:30:18.582Z,2.35
2018-02-06T22:32:46.338Z,2.24
2018-02-06T22:35:14.018Z,2.23
2018-02-06T22:37:41.784Z,2.15
2018-02-06T22:40:09.530Z,2.12
2018-02-06T22:42:37.255Z,2.06
2018-02-06T22:45:05.019Z,2.08
2018-02-06T22:47:32.746Z,2.06
2018-02-06T22:50:00.426Z,2.03
2018-02-06T22:52:28.138Z,2.02
2018-02-06T22:54:55.850Z,1.94
2018-02-06T22:57:23.570Z,1.93
2018-02-06T22:59:51.270Z,1.88
2018-02-06T23:02:18.949Z,1.93
2018-02-06T23:04:46.661Z,1.90
2018-02-06T23:07:14.338Z,1.85
2018-02-06T23:09:42.173Z,1.86
2018-02-06T23:12:09.809Z,1.84
2018-02-06T23:14:37.501Z,1.81
2018-02-06T23:17:05.177Z,1.80
2018-02-06T23:19:32.889Z,1.78
2018-02-06T23:22:00.602Z,1.72
2018-02-06T23:24:28.318Z,1.73
2018-02-06T23:26:56.011Z,1.75
2018-02-06T23:29:23.706Z,1.76
2018-02-06T23:31:51.387Z,1.77
2018-02-06T23:34:19.209Z,1.78
2018-02-06T23:36:46.894Z,1.73
2018-02-06T23:39:14.696Z,1.66
2018-02-06T23:41:42.381Z,1.73
2018-02-06T23:44:10.092Z,1.79
2018-02-06T23:46:37.778Z,1.81
2018-02-06T23:49:05.503Z,1.87
2018-02-06T23:51:33.169Z,1.91
2018-02-06T23:54:00.877Z,1.97
2018-02-06T23:56:28.545Z,2.00
2018-02-06T23:58:56.265Z,2.07
